createdAt,value
2023-04-25T00:00:09.810Z,12.40
2023-04-25T00:02:38.156Z,12.40
2023-04-25T00:05:07.211Z,12.40
2023-04-25T00:07:36.864Z,12.40
2023-04-25T00:10:05.960Z,12.40
2023-04-25T00:12:34.860Z,12.50
2023-04-25T00:15:03.012Z,12.50
2023-04-25T00:17:32.247Z,12.50
2023-04-25T00:20:00.377Z,12.60
2023-04-25T00:22:28.674Z,12.50
2023-04-25T00:25:01.104Z,12.50
2023-04-25T00:27:29.192Z,12.50
2023-04-25T00:29:57.270Z,12.50
2023-04-25T00:32:25.336Z,12.50
2023-04-25T00:34:53.488Z,12.50
2023-04-25T00:37:22.057Z,12.40
2023-04-25T00:39:50.311Z,12.40
2023-04-25T00:42:20.284Z,12.40
2023-04-25T00:44:49.716Z,12.40
2023-04-25T00:47:17.936Z,12.40
2023-04-25T00:49:46.058Z,12.40
2023-04-25T00:52:14.600Z,12.40
2023-04-25T00:54:42.776Z,12.30
2023-04-25T00:57:11.720Z,12.30
2023-04-25T00:59:46.670Z,12.30
2023-04-25T01:02:15.084Z,12.30
2023-04-25T01:04:44.679Z,12.30
2023-04-25T01:07:12.805Z,12.30
2023-04-25T01:09:41.114Z,12.30
2023-04-25T01:12:09.518Z,12.30
2023-04-25T01:14:38.870Z,12.30
2023-04-25T01:17:10.077Z,12.30
2023-04-25T01:19:38.307Z,12.30
2023-04-25T01:22:11.222Z,12.30
2023-04-25T01:24:40.139Z,12.30
2023-04-25T01:27:09.161Z,12.30
2023-04-25T01:29:37.643Z,12.20
2023-04-25T01:32:07.361Z,12.20
2023-04-25T01:34:35.643Z,12.20
2023-04-25T01:37:03.726Z,12.10
2023-04-25T01:39:33.228Z,12.10
2023-04-25T01:42:02.593Z,12.10
2023-04-25T01:44:30.815Z,12.00
2023-04-25T01:46:58.953Z,12.00
2023-04-25T01:49:27.062Z,11.90
2023-04-25T01:51:55.334Z,11.90
2023-04-25T01:54:23.755Z,11.90
2023-04-25T01:56:54.154Z,11.80
2023-04-25T01:59:22.865Z,11.80
2023-04-25T02:01:51.097Z,11.80
2023-04-25T02:04:19.548Z,11.70
2023-04-25T02:06:47.774Z,11.70
2023-04-25T02:09:15.866Z,11.60
2023-04-25T02:11:43.968Z,11.60
2023-04-25T02:14:13.418Z,11.50
2023-04-25T02:16:41.677Z,11.50
2023-04-25T02:19:09.797Z,11.50
2023-04-25T02:21:37.990Z,11.50
2023-04-25T02:24:06.969Z,11.40
2023-04-25T02:26:35.027Z,11.40
2023-04-25T02:29:03.097Z,11.30
2023-04-25T02:31:32.583Z,11.30
2023-04-25T02:34:00.711Z,11.30
2023-04-25T02:36:28.803Z,11.20
2023-04-25T02:38:56.834Z,11.20
2023-04-25T02:41:24.880Z,11.10
2023-04-25T02:43:53.179Z,11.10
2023-04-25T02:46:32.154Z,11.00
2023-04-25T02:49:07.875Z,10.90
2023-04-25T02:51:36.020Z,10.90
2023-04-25T02:54:04.150Z,10.80
2023-04-25T02:56:32.231Z,10.80
2023-04-25T02:59:00.315Z,10.70
2023-04-25T03:01:28.438Z,10.60
2023-04-25T03:03:56.650Z,10.60
2023-04-25T03:06:26.245Z,10.50
2023-04-25T03:08:54.348Z,10.50
2023-04-25T03:11:22.468Z,10.40
2023-04-25T03:13:50.788Z,10.40
2023-04-25T03:16:19.119Z,10.40
2023-04-25T03:18:47.227Z,10.30
2023-04-25T03:21:15.344Z,10.30
2023-04-25T03:23:44.827Z,10.30
2023-04-25T03:26:12.901Z,10.20
2023-04-25T03:28:41.150Z,10.20
2023-04-25T03:31:09.372Z,10.10
2023-04-25T03:33:37.471Z,10.10
2023-04-25T03:36:06.095Z,10.10
2023-04-25T03:38:34.267Z,10.00
2023-04-25T03:41:03.867Z,10.00
2023-04-25T03:43:31.939Z,9.90
2023-04-25T03:46:00.247Z,9.90
2023-04-25T03:48:28.802Z,9.90
2023-04-25T03:50:57.335Z,9.80
2023-04-25T03:53:25.465Z,9.80
2023-04-25T03:55:54.223Z,9.80
2023-04-25T03:58:24.127Z,9.70
2023-04-25T04:00:52.253Z,9.70
2023-04-25T04:03:21.525Z,9.70
2023-04-25T04:05:50.050Z,9.60
2023-04-25T04:08:18.117Z,9.60
2023-04-25T04:10:46.288Z,9.60
2023-04-25T04:13:14.362Z,9.50
2023-04-25T04:15:43.964Z,9.50
2023-04-25T04:18:12.217Z,9.50
2023-04-25T04:20:40.357Z,9.50
2023-04-25T04:23:08.433Z,9.50
2023-04-25T04:25:36.524Z,9.50
2023-04-25T04:28:04.901Z,9.50
2023-04-25T04:30:34.213Z,9.40
2023-04-25T04:33:04.520Z,9.50
2023-04-25T04:35:32.691Z,9.40
2023-04-25T04:38:00.862Z,9.40
2023-04-25T04:40:29.101Z,9.40
2023-04-25T04:42:58.358Z,9.40
2023-04-25T04:45:26.491Z,9.40
2023-04-25T04:47:56.315Z,9.40
2023-04-25T04:50:25.886Z,9.40
2023-04-25T04:52:55.447Z,9.30
2023-04-25T04:55:23.563Z,9.30
2023-04-25T04:57:51.892Z,9.30
2023-04-25T05:00:21.772Z,9.40
2023-04-25T05:02:50.170Z,9.30
2023-04-25T05:05:18.492Z,9.40
2023-04-25T05:07:47.955Z,9.40
2023-04-25T05:10:16.300Z,9.50
2023-04-25T05:12:44.398Z,9.50
2023-04-25T05:15:12.914Z,9.50
2023-04-25T05:17:41.153Z,9.50
2023-04-25T05:20:10.594Z,9.60
2023-04-25T05:22:38.747Z,9.60
2023-04-25T05:25:08.917Z,9.60
2023-04-25T05:27:37.010Z,9.70
2023-04-25T05:30:07.050Z,9.70
2023-04-25T05:32:35.205Z,9.80
2023-04-25T05:35:03.854Z,9.80
2023-04-25T05:37:33.717Z,9.90
2023-04-25T05:40:02.124Z,9.90
2023-04-25T05:42:31.571Z,10.00
2023-04-25T05:44:59.633Z,10.00
2023-04-25T05:47:27.800Z,10.10
2023-04-25T05:49:56.084Z,10.10
2023-04-25T05:52:24.190Z,10.20
2023-04-25T05:54:52.305Z,10.30
2023-04-25T05:57:25.022Z,10.30
2023-04-25T05:59:55.069Z,10.30
2023-04-25T06:02:23.644Z,10.40
2023-04-25T06:04:52.885Z,10.40
2023-04-25T06:07:21.249Z,10.40
2023-04-25T06:09:49.427Z,10.40
2023-04-25T06:12:17.539Z,10.50
2023-04-25T06:14:45.677Z,10.50
2023-04-25T06:17:15.151Z,10.50
2023-04-25T06:19:43.308Z,10.50
2023-04-25T06:22:11.541Z,10.60
2023-04-25T06:24:39.662Z,10.60
2023-04-25T06:27:07.744Z,10.70
2023-04-25T06:29:35.810Z,10.70
2023-04-25T06:32:03.900Z,10.80
2023-04-25T06:34:34.008Z,10.90
2023-04-25T06:37:02.059Z,11.00
2023-04-25T06:39:30.376Z,11.00
2023-04-25T06:41:58.577Z,11.10
2023-04-25T06:44:30.993Z,11.10
2023-04-25T06:46:59.158Z,11.20
2023-04-25T06:49:27.293Z,11.20
2023-04-25T06:51:56.752Z,11.20
2023-04-25T06:54:25.885Z,11.30
2023-04-25T06:56:53.966Z,11.30
2023-04-25T06:59:22.062Z,11.40
2023-04-25T07:01:50.133Z,11.40
2023-04-25T07:04:18.422Z,11.40
2023-04-25T07:06:48.494Z,11.50
2023-04-25T07:09:18.082Z,11.50
2023-04-25T07:11:46.139Z,11.60
2023-04-25T07:14:14.193Z,11.80
2023-04-25T07:16:42.887Z,11.90
2023-04-25T07:19:11.025Z,12.00
2023-04-25T07:21:39.086Z,12.20
2023-04-25T07:24:08.016Z,12.30
2023-04-25T07:26:37.445Z,12.40
2023-04-25T07:29:05.893Z,12.60
2023-04-25T07:31:34.032Z,12.70
2023-04-25T07:34:02.341Z,12.80
2023-04-25T07:36:31.916Z,13.00
2023-04-25T07:39:00.052Z,13.10
2023-04-25T07:41:28.178Z,13.20
2023-04-25T07:43:57.683Z,13.40
2023-04-25T07:46:25.958Z,13.50
2023-04-25T07:48:54.358Z,13.60
2023-04-25T07:51:23.205Z,13.80
2023-04-25T07:53:51.672Z,14.00
2023-04-25T07:56:19.785Z,14.20
2023-04-25T07:58:47.906Z,14.40
2023-04-25T08:01:17.711Z,14.50
2023-04-25T08:03:46.468Z,14.70
2023-04-25T08:06:14.971Z,14.80
2023-04-25T08:08:43.344Z,15.00
2023-04-25T08:11:11.593Z,15.10
2023-04-25T08:13:39.644Z,15.20
2023-04-25T08:16:07.910Z,15.40
2023-04-25T08:18:37.462Z,15.60
2023-04-25T08:21:05.694Z,15.70
2023-04-25T08:23:33.741Z,15.90
2023-04-25T08:26:01.871Z,16.10
2023-04-25T08:28:29.927Z,16.20
2023-04-25T08:30:58.072Z,16.30
2023-04-25T08:33:26.524Z,16.40
2023-04-25T08:35:55.993Z,16.50
2023-04-25T08:38:24.059Z,16.50
2023-04-25T08:40:52.950Z,16.50
2023-04-25T08:43:22.668Z,16.50
2023-04-25T08:45:50.738Z,16.50
2023-04-25T08:48:19.504Z,16.40
2023-04-25T08:50:52.743Z,16.40
2023-04-25T08:53:28.311Z,16.40
2023-04-25T08:55:58.577Z,16.30
2023-04-25T08:58:26.724Z,16.20
2023-04-25T09:00:54.900Z,16.20
2023-04-25T09:03:23.303Z,16.20
2023-04-25T09:05:52.207Z,16.10
2023-04-25T09:08:20.474Z,16.10
2023-04-25T09:10:49.952Z,16.10
2023-04-25T09:13:27.107Z,16.20
2023-04-25T09:15:56.285Z,16.20
2023-04-25T09:18:29.794Z,16.20
2023-04-25T09:21:02.077Z,16.20
2023-04-25T09:23:33.929Z,16.20
2023-04-25T09:26:03.366Z,16.20
2023-04-25T09:28:31.475Z,16.20
2023-04-25T09:30:59.963Z,16.10
2023-04-25T09:33:32.452Z,16.10
2023-04-25T09:36:05.860Z,16.10
2023-04-25T09:38:41.321Z,16.10
2023-04-25T09:41:11.028Z,16.10
2023-04-25T09:43:39.754Z,16.00
2023-04-25T09:46:12.157Z,16.00
2023-04-25T09:48:40.609Z,16.00
2023-04-25T09:51:09.928Z,16.00
2023-04-25T09:53:40.091Z,16.10
2023-04-25T09:56:10.909Z,16.10
2023-04-25T09:58:40.878Z,16.10
2023-04-25T10:01:10.735Z,16.20
2023-04-25T10:03:41.678Z,16.20
2023-04-25T10:06:12.061Z,16.30
2023-04-25T10:08:40.588Z,16.50
2023-04-25T10:11:11.015Z,16.60
2023-04-25T10:13:41.723Z,16.70
2023-04-25T10:16:10.126Z,16.90
2023-04-25T10:18:38.497Z,17.00
2023-04-25T10:21:08.084Z,17.20
2023-04-25T10:23:36.736Z,17.30
2023-04-25T10:26:04.921Z,17.30
2023-04-25T10:28:57.770Z,17.40
2023-04-25T10:31:26.014Z,17.30
2023-04-25T10:33:55.317Z,17.30
2023-04-25T10:36:24.918Z,17.20
2023-04-25T10:38:55.299Z,17.10
2023-04-25T10:41:24.758Z,16.90
2023-04-25T10:44:03.101Z,16.90
2023-04-25T10:46:31.922Z,16.80
2023-04-25T10:49:01.503Z,16.70
2023-04-25T10:51:40.084Z,16.70
2023-04-25T10:54:21.028Z,16.70
2023-04-25T10:56:52.572Z,16.80
2023-04-25T10:59:22.525Z,16.90
2023-04-25T11:01:54.005Z,17.10
2023-04-25T11:04:23.659Z,17.30
2023-04-25T11:07:07.149Z,17.40
2023-04-25T11:09:36.252Z,17.40
2023-04-25T11:12:06.005Z,17.40
2023-04-25T11:14:36.171Z,17.30
2023-04-25T11:17:04.393Z,17.20
2023-04-25T11:19:32.687Z,17.10
2023-04-25T11:22:02.006Z,17.00
2023-04-25T11:24:30.540Z,16.90
2023-04-25T11:27:00.211Z,16.80
2023-04-25T11:29:30.967Z,16.80
2023-04-25T11:32:04.363Z,16.70
2023-04-25T11:34:32.773Z,16.70
2023-04-25T11:37:01.774Z,16.70
2023-04-25T11:39:30.470Z,16.80
2023-04-25T11:41:59.449Z,16.80
2023-04-25T11:44:30.698Z,16.80
2023-04-25T11:47:00.161Z,16.80
2023-04-25T11:49:33.146Z,16.80
2023-04-25T11:52:01.218Z,16.70
2023-04-25T11:54:29.374Z,16.60
2023-04-25T11:56:57.627Z,16.50
2023-04-25T11:59:27.520Z,16.50
2023-04-25T12:01:56.207Z,16.40
2023-04-25T12:04:27.306Z,16.40
2023-04-25T12:06:57.140Z,16.40
2023-04-25T12:09:31.383Z,16.40
2023-04-25T12:12:03.707Z,16.40
2023-04-25T12:14:33.434Z,16.50
2023-04-25T12:17:03.781Z,16.40
2023-04-25T12:19:36.597Z,16.50
2023-04-25T12:22:05.582Z,16.40
2023-04-25T12:24:39.030Z,16.40
2023-04-25T12:27:09.246Z,16.40
2023-04-25T12:29:49.493Z,16.40
2023-04-25T12:32:18.533Z,16.40
2023-04-25T12:34:48.092Z,16.30
2023-04-25T12:37:16.696Z,16.30
2023-04-25T12:39:44.806Z,16.30
2023-04-25T12:42:13.861Z,16.30
2023-04-25T12:44:42.632Z,16.40
2023-04-25T12:47:11.324Z,16.50
2023-04-25T12:49:39.465Z,16.70
2023-04-25T12:52:08.889Z,17.00
2023-04-25T12:54:37.096Z,17.30
2023-04-25T12:57:05.679Z,17.60
2023-04-25T12:59:33.761Z,17.70
2023-04-25T13:02:01.929Z,17.80
2023-04-25T13:04:30.266Z,17.80
2023-04-25T13:06:58.531Z,17.80
2023-04-25T13:09:28.002Z,17.90
2023-04-25T13:11:57.378Z,17.90
2023-04-25T13:14:27.423Z,17.90
2023-04-25T13:16:55.927Z,17.90
2023-04-25T13:19:24.127Z,17.90
2023-04-25T13:21:52.271Z,17.90
2023-04-25T13:24:20.516Z,17.80
2023-04-25T13:26:50.006Z,17.70
2023-04-25T13:29:18.053Z,17.60
2023-04-25T13:31:46.145Z,17.50
2023-04-25T13:34:14.506Z,17.40
2023-04-25T13:36:42.629Z,17.30
2023-04-25T13:39:12.139Z,17.20
2023-04-25T13:41:40.211Z,17.10
2023-04-25T13:44:09.659Z,17.00
2023-04-25T13:49:12.838Z,16.70
2023-04-25T13:51:43.276Z,16.60
2023-04-25T13:54:11.591Z,16.60
2023-04-25T13:56:39.724Z,16.50
2023-04-25T13:59:09.182Z,16.50
2023-04-25T14:01:37.757Z,16.50
2023-04-25T14:04:06.169Z,16.60
2023-04-25T14:06:34.827Z,16.60
2023-04-25T14:09:03.251Z,16.70
2023-04-25T14:11:31.338Z,16.80
2023-04-25T14:13:59.403Z,16.80
2023-04-25T14:16:29.273Z,16.90
2023-04-25T14:18:57.513Z,16.90
2023-04-25T14:21:26.169Z,16.90
2023-04-25T14:23:54.564Z,16.90
2023-04-25T14:26:22.953Z,16.80
2023-04-25T14:28:51.173Z,16.70
2023-04-25T14:31:19.359Z,16.60
2023-04-25T14:33:48.978Z,16.50
2023-04-25T14:36:17.183Z,16.40
2023-04-25T14:38:46.696Z,16.30
2023-04-25T14:41:14.763Z,16.20
2023-04-25T14:43:42.824Z,16.10
2023-04-25T14:46:11.988Z,16.00
2023-04-25T14:48:40.630Z,16.00
2023-04-25T14:51:10.414Z,15.90
2023-04-25T14:53:38.491Z,15.80
2023-04-25T14:56:08.251Z,15.80
2023-04-25T14:58:36.552Z,15.80
2023-04-25T15:01:04.797Z,15.80
2023-04-25T15:03:33.550Z,15.90
2023-04-25T15:06:02.189Z,15.90
2023-04-25T15:08:32.231Z,16.00
2023-04-25T15:11:00.375Z,16.10
2023-04-25T15:13:28.904Z,16.20
2023-04-25T15:15:56.965Z,16.20
2023-04-25T15:18:25.758Z,16.20
2023-04-25T15:20:56.254Z,16.20
2023-04-25T15:23:25.329Z,16.20
2023-04-25T15:25:55.841Z,16.20
2023-04-25T15:28:24.190Z,16.20
2023-04-25T15:30:52.794Z,16.10
2023-04-25T15:33:20.931Z,16.00
2023-04-25T15:35:49.034Z,16.00
2023-04-25T15:38:17.129Z,15.90
2023-04-25T15:40:45.309Z,15.90
2023-04-25T15:43:17.240Z,15.80
2023-04-25T15:45:45.627Z,15.80
2023-04-25T15:48:14.085Z,15.80
2023-04-25T15:50:43.676Z,15.80
2023-04-25T15:53:11.821Z,15.70
2023-04-25T15:55:39.986Z,15.70
2023-04-25T15:58:09.953Z,15.80
2023-04-25T16:00:41.113Z,15.80
2023-04-25T16:03:09.663Z,15.80
2023-04-25T16:05:38.534Z,15.80
2023-04-25T16:08:06.904Z,15.80
2023-04-25T16:10:35.020Z,15.80
2023-04-25T16:13:03.827Z,15.80
2023-04-25T16:15:34.653Z,15.80
2023-04-25T16:18:05.214Z,15.80
2023-04-25T16:20:33.823Z,15.70
2023-04-25T16:23:01.919Z,15.70
2023-04-25T16:25:30.010Z,15.60
2023-04-25T16:27:58.101Z,15.60
2023-04-25T16:30:26.347Z,15.50
2023-04-25T16:32:57.119Z,15.50
2023-04-25T16:35:30.421Z,15.50
2023-04-25T16:37:58.734Z,15.60
2023-04-25T16:40:27.195Z,15.60
2023-04-25T16:42:55.266Z,15.60
2023-04-25T16:45:24.391Z,15.60
2023-04-25T16:47:52.497Z,15.60
2023-04-25T16:50:20.924Z,15.60
2023-04-25T16:52:51.091Z,15.50
2023-04-25T16:55:19.342Z,15.50
2023-04-25T16:57:47.408Z,15.40
2023-04-25T17:00:17.071Z,15.40
2023-04-25T17:02:45.429Z,15.30
2023-04-25T17:05:13.633Z,15.20
2023-04-25T17:07:41.717Z,15.10
2023-04-25T17:10:12.172Z,15.10
2023-04-25T17:12:40.249Z,15.00
2023-04-25T17:15:10.004Z,14.90
2023-04-25T17:17:38.091Z,14.80
2023-04-25T17:20:07.555Z,14.80
2023-04-25T17:22:36.170Z,14.70
2023-04-25T17:25:04.380Z,14.70
2023-04-25T17:27:34.027Z,14.70
2023-04-25T17:30:03.746Z,14.70
2023-04-25T17:32:32.164Z,14.70
2023-04-25T17:35:00.355Z,14.70
2023-04-25T17:37:28.868Z,14.70
2023-04-25T17:39:57.363Z,14.80
2023-04-25T17:42:25.979Z,14.80
2023-04-25T17:44:55.809Z,14.70
2023-04-25T17:47:24.214Z,14.70
2023-04-25T17:49:52.596Z,14.60
2023-04-25T17:52:20.662Z,14.60
2023-04-25T17:54:49.781Z,14.50
2023-04-25T17:57:18.106Z,14.40
2023-04-25T17:59:46.389Z,14.30
2023-04-25T18:02:17.058Z,14.20
2023-04-25T18:04:45.617Z,14.10
2023-04-25T18:07:13.700Z,14.00
2023-04-25T18:09:41.779Z,13.80
2023-04-25T18:12:10.065Z,13.70
2023-04-25T18:14:38.195Z,13.60
2023-04-25T18:17:07.187Z,13.50
2023-04-25T18:19:36.624Z,13.50
2023-04-25T18:22:04.761Z,13.30
2023-04-25T18:24:33.460Z,13.30
2023-04-25T18:27:05.867Z,13.20
2023-04-25T18:29:34.289Z,13.20
2023-04-25T18:32:04.583Z,13.20
2023-04-25T18:34:33.710Z,13.10
2023-04-25T18:37:03.261Z,13.10
2023-04-25T18:39:31.324Z,13.00
2023-04-25T18:42:05.536Z,13.00
2023-04-25T18:44:39.473Z,12.90
2023-04-25T18:47:07.767Z,12.90
2023-04-25T18:49:36.186Z,12.90
2023-04-25T18:52:08.461Z,12.80
2023-04-25T18:54:37.036Z,12.80
2023-04-25T18:57:06.159Z,12.70
2023-04-25T18:59:34.370Z,12.70
2023-04-25T19:02:03.060Z,12.60
2023-04-25T19:04:31.463Z,12.60
2023-04-25T19:06:59.710Z,12.50
2023-04-25T19:09:29.234Z,12.50
2023-04-25T19:11:57.977Z,12.40
2023-04-25T19:14:26.174Z,12.40
2023-04-25T19:16:54.551Z,12.40
2023-04-25T19:19:23.017Z,12.30
2023-04-25T19:21:52.472Z,12.30
2023-04-25T19:24:20.805Z,12.20
2023-04-25T19:26:50.237Z,12.20
2023-04-25T19:29:18.313Z,12.10
2023-04-25T19:31:46.976Z,12.10
2023-04-25T19:34:15.071Z,12.10
2023-04-25T19:36:44.153Z,12.00
2023-04-25T19:39:12.370Z,12.00
2023-04-25T19:41:40.429Z,12.00
2023-04-25T19:44:10.961Z,11.90
2023-04-25T19:46:39.591Z,11.90
2023-04-25T19:49:08.300Z,11.90
2023-04-25T19:51:38.187Z,11.90
2023-04-25T19:54:06.602Z,11.90
2023-04-25T19:56:34.988Z,11.90
2023-04-25T19:59:03.222Z,11.90
2023-04-25T20:01:32.710Z,11.90
2023-04-25T20:04:01.865Z,11.90
2023-04-25T20:06:30.212Z,11.90
2023-04-25T20:08:59.220Z,11.90
2023-04-25T20:11:29.129Z,11.90
2023-04-25T20:13:57.442Z,11.90
2023-04-25T20:16:25.624Z,11.90
2023-04-25T20:18:55.500Z,11.90
2023-04-25T20:21:23.875Z,12.00
2023-04-25T20:23:52.063Z,12.00
2023-04-25T20:26:22.503Z,12.00
2023-04-25T20:28:51.245Z,12.00
2023-04-25T20:31:19.727Z,12.00
2023-04-25T20:33:48.607Z,12.00
2023-04-25T20:36:19.604Z,12.00
2023-04-25T20:38:47.999Z,12.00
2023-04-25T20:41:16.165Z,12.00
2023-04-25T20:43:44.481Z,12.00
2023-04-25T20:46:12.647Z,12.00
2023-04-25T20:48:40.721Z,12.00
2023-04-25T20:51:08.897Z,12.00
2023-04-25T20:53:38.391Z,12.00
2023-04-25T20:56:07.394Z,12.00
2023-04-25T20:58:35.473Z,12.00
2023-04-25T21:01:04.333Z,12.00
2023-04-25T21:03:32.706Z,12.00
2023-04-25T21:06:01.624Z,12.00
2023-04-25T21:08:29.773Z,12.00
2023-04-25T21:10:59.242Z,12.00
2023-04-25T21:13:29.036Z,12.00
2023-04-25T21:15:57.460Z,12.00
2023-04-25T21:18:25.887Z,12.00
2023-04-25T21:20:54.029Z,12.00
2023-04-25T21:23:22.306Z,11.90
2023-04-25T21:25:51.613Z,11.90
2023-04-25T21:28:21.969Z,11.90
2023-04-25T21:30:50.138Z,11.90
2023-04-25T21:33:18.782Z,11.80
2023-04-25T21:35:46.975Z,11.80
2023-04-25T21:38:15.666Z,11.80
2023-04-25T21:40:43.963Z,11.80
2023-04-25T21:43:12.200Z,11.70
2023-04-25T21:46:02.085Z,11.70
2023-04-25T21:48:30.090Z,11.70
2023-04-25T21:50:58.201Z,11.70
2023-04-25T21:53:26.797Z,11.60
2023-04-25T21:55:54.898Z,11.60
2023-04-25T21:58:22.989Z,11.60
2023-04-25T22:00:52.454Z,11.60
2023-04-25T22:03:20.760Z,11.60
2023-04-25T22:05:49.162Z,11.60
2023-04-25T22:08:17.445Z,11.50
2023-04-25T22:10:46.318Z,11.50
2023-04-25T22:13:15.272Z,11.40
2023-04-25T22:15:43.670Z,11.40
2023-04-25T22:18:14.295Z,11.40
2023-04-25T22:20:43.556Z,11.30
2023-04-25T22:23:12.324Z,11.30
2023-04-25T22:25:40.471Z,11.20
2023-04-25T22:28:08.657Z,11.20
2023-04-25T22:30:37.870Z,11.10
2023-04-25T22:33:06.082Z,11.10
2023-04-25T22:35:35.580Z,11.00
2023-04-25T22:38:03.660Z,11.00
2023-04-25T22:40:31.993Z,10.90
2023-04-25T22:43:00.052Z,10.80
2023-04-25T22:45:28.435Z,10.80
2023-04-25T22:47:56.580Z,10.70
2023-04-25T22:50:25.152Z,10.70
2023-04-25T22:52:55.078Z,10.60
2023-04-25T22:55:23.398Z,10.60
2023-04-25T22:57:51.447Z,10.50
2023-04-25T23:00:21.818Z,10.40
2023-04-25T23:02:50.712Z,10.40
2023-04-25T23:05:19.435Z,10.40
2023-04-25T23:07:48.445Z,10.30
2023-04-25T23:10:18.761Z,10.30
2023-04-25T23:12:46.876Z,10.20
2023-04-25T23:15:15.435Z,10.20
2023-04-25T23:17:43.652Z,10.10
2023-04-25T23:20:13.303Z,10.10
2023-04-25T23:22:42.110Z,10.00
2023-04-25T23:25:11.086Z,9.80
2023-04-25T23:27:40.507Z,9.70
2023-04-25T23:30:10.333Z,9.50
2023-04-25T23:32:38.959Z,9.40
2023-04-25T23:35:08.067Z,9.30
2023-04-25T23:37:37.162Z,9.20
2023-04-25T23:40:08.584Z,9.10
2023-04-25T23:42:36.831Z,9.00
2023-04-25T23:45:07.965Z,9.00
2023-04-25T23:47:36.694Z,8.90
2023-04-25T23:50:05.274Z,8.90
2023-04-25T23:52:33.561Z,8.90
2023-04-25T23:55:01.664Z,8.80
2023-04-25T23:57:29.764Z,8.80
2023-04-25T23:59:57.848Z,8.80
